Time;durP1;ratioP1;P1;durP2;ratioP2;P2;SDS_P1;SDS_P2;PMS_P1;PMS_P2;Temp;Humidity;BMP_temperature;BMP_pressure;BME280_temperature;BME280_humidity;BME280_pressure;Samples;Min_cycle;Max_cycle;Signal;HPM_P1;HPM_P2
2023/01/17 00:02:00;;;;;;;1.20;1.20;;;5.70;99.90;;;;;;4990279;28;20220;-75
2023/01/17 00:09:57;;;;;;;1.50;1.40;;;5.70;99.90;;;;;;4990593;28;20194;-76
2023/01/17 00:12:26;;;;;;;1.17;1.10;;;5.60;99.90;;;;;;4990035;28;20220;-75
2023/01/17 00:14:54;;;;;;;1.40;1.30;;;5.70;99.90;;;;;;4990327;28;20309;-75
2023/01/17 00:17:22;;;;;;;0.97;0.97;;;5.70;99.90;;;;;;4974433;28;20243;-75
2023/01/17 01:34:43;;;;;;;1.03;1.03;;;5.40;99.90;;;;;;4988551;28;20225;-76
2023/01/17 01:37:11;;;;;;;1.13;1.13;;;5.40;99.90;;;;;;4989019;28;20213;-77
2023/01/17 01:39:38;;;;;;;1.67;1.37;;;5.40;99.90;;;;;;4988330;28;20298;-77
2023/01/17 01:42:14;;;;;;;1.60;1.50;;;5.40;99.90;;;;;;4988668;28;20313;-76
2023/01/17 01:44:46;;;;;;;2.70;1.30;;;5.40;99.90;;;;;;4988935;28;20197;-77
2023/01/17 01:47:20;;;;;;;1.43;1.33;;;5.50;99.90;;;;;;4988719;28;20212;-77
2023/01/17 01:49:48;;;;;;;1.73;1.30;;;5.40;99.90;;;;;;4988518;28;20288;-76
2023/01/17 01:52:19;;;;;;;1.63;1.53;;;5.40;99.90;;;;;;4988396;28;20214;-74
2023/01/17 01:54:49;;;;;;;2.97;1.80;;;5.40;99.90;;;;;;4988242;28;20201;-73
2023/01/17 01:57:19;;;;;;;1.50;1.40;;;5.40;99.90;;;;;;4988327;28;20195;-72
2023/01/17 01:59:51;;;;;;;1.40;1.30;;;5.40;99.90;;;;;;4988200;28;20660;-73
2023/01/17 02:02:18;;;;;;;1.40;1.40;;;5.40;99.90;;;;;;4988064;28;20648;-74
2023/01/17 02:04:46;;;;;;;1.30;1.30;;;5.40;99.90;;;;;;4988193;28;20358;-74
2023/01/17 02:07:18;;;;;;;1.60;1.50;;;5.40;99.90;;;;;;4988362;28;20285;-73
2023/01/17 02:09:45;;;;;;;1.40;1.30;;;5.40;99.90;;;;;;4988610;28;20281;-73
2023/01/17 02:12:13;;;;;;;1.40;1.30;;;5.30;99.90;;;;;;4988205;28;20739;-73
2023/01/17 02:14:41;;;;;;;1.33;1.23;;;5.30;99.90;;;;;;4997543;28;20583;-74
2023/01/17 02:17:19;;;;;;;1.30;1.20;;;5.40;99.90;;;;;;4992904;28;20800;-73
2023/01/17 02:20:17;;;;;;;1.33;1.13;;;5.40;99.90;;;;;;4987693;28;20277;-73
2023/01/17 02:23:32;;;;;;;1.50;1.40;;;5.30;99.90;;;;;;4988107;28;20304;-73
2023/01/17 02:26:39;;;;;;;1.93;1.47;;;5.40;99.90;;;;;;4896637;29;20224;-72
2023/01/17 02:29:48;;;;;;;1.20;1.10;;;5.40;99.90;;;;;;4908702;29;20205;-73
2023/01/17 02:32:23;;;;;;;2.47;1.20;;;5.30;99.90;;;;;;4988194;28;20317;-73
2023/01/17 02:34:56;;;;;;;1.43;1.33;;;5.30;99.90;;;;;;4980834;28;20226;-73
2023/01/17 02:37:26;;;;;;;1.60;1.50;;;5.30;99.90;;;;;;4968828;28;20290;-74
2023/01/17 02:39:59;;;;;;;1.47;1.37;;;5.40;99.90;;;;;;4987080;28;20281;-73
2023/01/17 02:42:34;;;;;;;1.30;1.20;;;5.40;99.90;;;;;;4988041;28;20198;-73
2023/01/17 02:45:02;;;;;;;1.10;1.10;;;5.40;99.90;;;;;;4988113;28;20212;-73
2023/01/17 02:47:32;;;;;;;1.00;1.00;;;5.40;99.90;;;;;;4987607;28;20301;-74
2023/01/17 02:50:03;;;;;;;1.47;1.37;;;5.40;99.90;;;;;;4987854;28;20301;-75
2023/01/17 02:52:45;;;;;;;1.23;1.03;;;5.40;99.90;;;;;;4987626;28;20264;-73
2023/01/17 02:55:22;;;;;;;1.20;1.10;;;5.40;99.90;;;;;;4976149;28;20214;-75
2023/01/17 02:58:06;;;;;;;1.40;1.17;;;5.40;99.90;;;;;;4986275;28;20276;-73
2023/01/17 03:00:39;;;;;;;1.57;1.10;;;5.40;99.90;;;;;;4987255;28;20692;-75
2023/01/17 03:03:18;;;;;;;1.03;1.03;;;5.50;99.90;;;;;;4987572;28;20278;-75
2023/01/17 03:05:50;;;;;;;1.20;1.10;;;5.50;99.90;;;;;;4987799;28;20206;-72
2023/01/17 03:08:18;;;;;;;1.00;1.00;;;5.50;99.90;;;;;;4987865;28;20230;-73
2023/01/17 03:10:45;;;;;;;1.20;1.10;;;5.50;99.90;;;;;;4987902;28;20206;-72
2023/01/17 03:13:12;;;;;;;1.63;0.80;;;5.50;99.90;;;;;;4987726;28;20296;-73
2023/01/17 03:15:39;;;;;;;0.73;0.73;;;5.50;99.90;;;;;;4987397;28;20240;-72
2023/01/17 03:18:13;;;;;;;0.80;0.80;;;5.50;99.90;;;;;;4987671;28;20201;-74
2023/01/17 03:20:40;;;;;;;0.60;0.60;;;5.50;99.90;;;;;;4987087;28;20210;-75
2023/01/17 03:23:07;;;;;;;0.80;0.80;;;5.50;99.90;;;;;;4987141;28;20317;-72
2023/01/17 03:25:34;;;;;;;0.60;0.60;;;5.50;99.90;;;;;;4987384;28;20210;-72
2023/01/17 03:28:01;;;;;;;0.80;0.80;;;5.60;99.90;;;;;;4989430;28;20309;-76
2023/01/17 03:30:28;;;;;;;0.67;0.60;;;5.60;99.90;;;;;;4990552;28;20206;-73
2023/01/17 03:32:55;;;;;;;0.67;0.67;;;5.60;99.90;;;;;;4989362;28;20289;-73
2023/01/17 03:35:23;;;;;;;1.00;1.00;;;5.60;99.90;;;;;;4988750;28;20234;-73
2023/01/17 03:37:50;;;;;;;1.07;0.73;;;5.60;99.90;;;;;;4989260;28;20637;-73
2023/01/17 03:40:17;;;;;;;1.30;0.80;;;5.60;99.90;;;;;;4989051;28;20304;-75
2023/01/17 03:42:44;;;;;;;0.57;0.57;;;5.60;99.90;;;;;;4988912;28;20293;-73
2023/01/17 03:45:11;;;;;;;0.87;0.70;;;5.60;99.90;;;;;;4988734;28;20297;-73
2023/01/17 03:47:38;;;;;;;0.50;0.50;;;5.60;99.90;;;;;;4987413;28;20322;-73
2023/01/17 03:50:06;;;;;;;0.70;0.70;;;5.70;99.90;;;;;;4989268;28;20238;-73
2023/01/17 03:52:34;;;;;;;0.70;0.70;;;5.60;99.90;;;;;;4981227;28;20633;-72
2023/01/17 03:55:01;;;;;;;0.70;0.63;;;5.60;99.90;;;;;;4977206;28;20205;-72
2023/01/17 03:57:28;;;;;;;0.73;0.60;;;5.60;99.90;;;;;;4990324;28;20245;-73
2023/01/17 03:59:55;;;;;;;0.70;0.70;;;5.60;99.90;;;;;;4990427;28;20210;-72
2023/01/17 04:02:23;;;;;;;1.73;0.70;;;5.60;99.90;;;;;;4988771;28;20202;-72
2023/01/17 04:04:49;;;;;;;0.70;0.70;;;5.60;99.90;;;;;;4988928;28;20958;-72
2023/01/17 04:07:16;;;;;;;0.50;0.50;;;5.60;99.90;;;;;;4989650;28;20301;-72
2023/01/17 04:09:45;;;;;;;0.60;0.60;;;5.60;99.90;;;;;;4989891;28;20214;-73
2023/01/17 04:12:12;;;;;;;0.67;0.60;;;5.60;99.90;;;;;;4990160;28;20298;-73
2023/01/17 04:14:39;;;;;;;0.60;0.60;;;5.60;99.90;;;;;;4990123;28;20576;-72
2023/01/17 04:17:06;;;;;;;1.87;0.50;;;5.60;99.90;;;;;;4984014;28;20246;-72
2023/01/17 04:19:35;;;;;;;0.70;0.70;;;5.60;99.90;;;;;;4989983;28;20210;-72
2023/01/17 04:22:03;;;;;;;0.40;0.40;;;5.60;99.90;;;;;;4989668;28;20233;-72
2023/01/17 04:24:29;;;;;;;0.53;0.43;;;5.60;99.90;;;;;;4989765;28;20305;-73
2023/01/17 04:26:58;;;;;;;0.50;0.50;;;5.60;99.90;;;;;;4990009;28;20210;-72
2023/01/17 04:29:25;;;;;;;0.40;0.40;;;5.60;99.90;;;;;;4989802;28;20206;-72
2023/01/17 04:31:52;;;;;;;0.40;0.40;;;5.60;99.90;;;;;;4990234;28;20206;-73
2023/01/17 04:34:19;;;;;;;0.50;0.50;;;5.50;99.90;;;;;;4989708;28;20293;-73
2023/01/17 04:36:46;;;;;;;0.40;0.40;;;5.50;99.90;;;;;;4990059;28;20269;-72
2023/01/17 04:39:12;;;;;;;0.27;0.27;;;5.40;99.90;;;;;;4988803;28;20752;-72
2023/01/17 04:41:39;;;;;;;0.20;0.20;;;5.40;99.90;;;;;;4989834;28;20277;-75
2023/01/17 04:44:08;;;;;;;0.50;0.40;;;5.40;99.90;;;;;;4989424;28;20210;-73
2023/01/17 04:46:34;;;;;;;0.27;0.27;;;5.40;99.90;;;;;;4989551;28;20566;-73
2023/01/17 04:49:01;;;;;;;0.30;0.30;;;5.40;99.90;;;;;;4988918;28;20208;-73
2023/01/17 04:51:28;;;;;;;0.40;0.40;;;5.40;99.90;;;;;;4989183;28;20301;-73
2023/01/17 04:53:55;;;;;;;0.40;0.40;;;5.30;99.90;;;;;;4989620;28;20302;-72
2023/01/17 04:56:22;;;;;;;0.40;0.40;;;5.20;99.90;;;;;;4989083;28;20240;-72
2023/01/17 04:58:49;;;;;;;0.20;0.20;;;5.30;99.90;;;;;;4989451;28;20306;-72
2023/01/17 05:01:17;;;;;;;0.30;0.30;;;5.20;99.90;;;;;;4989241;28;20309;-72
2023/01/17 05:03:44;;;;;;;0.30;0.30;;;5.20;99.90;;;;;;4989133;28;20221;-73
2023/01/17 05:06:11;;;;;;;0.40;0.40;;;5.20;99.90;;;;;;4989383;28;20297;-72
2023/01/17 05:08:38;;;;;;;0.37;0.37;;;5.30;99.90;;;;;;4989294;28;20268;-72
2023/01/17 05:11:04;;;;;;;0.30;0.30;;;5.30;99.90;;;;;;4988822;28;20245;-72
2023/01/17 05:13:31;;;;;;;0.30;0.30;;;5.30;99.90;;;;;;4988523;28;20205;-73
2023/01/17 05:15:58;;;;;;;0.27;0.27;;;5.40;99.90;;;;;;4983961;28;20289;-72
2023/01/17 05:18:27;;;;;;;0.40;0.40;;;5.30;99.90;;;;;;4969424;28;20215;-72
2023/01/17 05:20:53;;;;;;;0.30;0.30;;;5.30;99.90;;;;;;4969530;28;20640;-72
2023/01/17 05:23:20;;;;;;;0.30;0.30;;;5.30;99.90;;;;;;4984913;28;20308;-73
2023/01/17 05:25:47;;;;;;;0.30;0.30;;;5.30;99.90;;;;;;4988898;28;20272;-72
2023/01/17 05:28:15;;;;;;;0.40;0.40;;;5.30;99.90;;;;;;4988937;28;20216;-73
2023/01/17 05:30:41;;;;;;;0.37;0.37;;;5.30;99.90;;;;;;4988394;28;20657;-73
2023/01/17 05:33:09;;;;;;;0.57;0.40;;;5.40;99.90;;;;;;4988648;28;20297;-72
2023/01/17 05:35:38;;;;;;;0.50;0.50;;;5.30;99.90;;;;;;4988740;28;20229;-72
2023/01/17 05:38:05;;;;;;;0.33;0.33;;;5.30;99.90;;;;;;4988646;28;20661;-72
2023/01/17 05:40:33;;;;;;;0.40;0.40;;;5.30;99.90;;;;;;4988490;28;20293;-73
2023/01/17 05:43:01;;;;;;;0.47;0.47;;;5.30;99.90;;;;;;4988500;28;20916;-72
2023/01/17 05:45:30;;;;;;;0.30;0.30;;;5.30;99.90;;;;;;4988454;28;20301;-72
2023/01/17 05:47:58;;;;;;;0.30;0.30;;;5.30;99.90;;;;;;4988651;28;20309;-72
2023/01/17 05:50:26;;;;;;;0.50;0.50;;;5.30;99.90;;;;;;4988588;28;20225;-72
2023/01/17 05:52:56;;;;;;;0.60;0.60;;;5.30;99.90;;;;;;4981721;28;20808;-72
2023/01/17 05:55:24;;;;;;;0.40;0.40;;;5.20;99.90;;;;;;4970088;28;20646;-73
2023/01/17 05:57:51;;;;;;;0.30;0.30;;;5.20;99.90;;;;;;4988241;28;20234;-72
2023/01/17 06:00:19;;;;;;;0.40;0.40;;;5.20;99.90;;;;;;4988261;28;20312;-72
2023/01/17 06:02:46;;;;;;;0.60;0.60;;;5.20;99.90;;;;;;4987800;28;20989;-72
2023/01/17 06:05:14;;;;;;;0.60;0.60;;;5.20;99.90;;;;;;4988442;28;20293;-72
2023/01/17 06:07:43;;;;;;;0.50;0.50;;;5.20;99.90;;;;;;4988312;28;20297;-72
2023/01/17 06:10:13;;;;;;;0.40;0.40;;;5.20;99.90;;;;;;4988357;28;20224;-72
2023/01/17 06:12:40;;;;;;;0.73;0.60;;;5.10;99.90;;;;;;4988195;28;20574;-71
2023/01/17 06:15:08;;;;;;;0.50;0.50;;;5.20;99.90;;;;;;4987959;28;20245;-72
2023/01/17 06:17:35;;;;;;;0.50;0.50;;;5.20;99.90;;;;;;4987438;28;20246;-72
2023/01/17 06:20:02;;;;;;;0.50;0.50;;;5.20;99.90;;;;;;4987968;28;20301;-72
2023/01/17 06:22:30;;;;;;;0.50;0.50;;;5.20;99.90;;;;;;4988018;28;20309;-72
2023/01/17 06:24:57;;;;;;;0.63;0.63;;;5.20;99.90;;;;;;4988222;28;20312;-72
2023/01/17 06:27:25;;;;;;;0.53;0.53;;;5.10;99.90;;;;;;4987694;28;20290;-72
2023/01/17 06:29:52;;;;;;;0.57;0.57;;;5.20;99.90;;;;;;4988108;28;20216;-73
2023/01/17 06:32:19;;;;;;;2.20;0.50;;;5.10;99.90;;;;;;4987699;28;20305;-72
2023/01/17 06:34:46;;;;;;;0.60;0.60;;;5.20;99.90;;;;;;4988072;28;20212;-72
2023/01/17 06:37:13;;;;;;;0.70;0.70;;;5.10;99.90;;;;;;4987683;28;20234;-73
2023/01/17 06:39:39;;;;;;;0.60;0.60;;;5.10;99.90;;;;;;4987765;28;20214;-72
2023/01/17 06:42:06;;;;;;;1.27;0.73;;;5.10;99.90;;;;;;4987620;28;20297;-72
2023/01/17 06:44:34;;;;;;;0.57;0.57;;;5.00;99.90;;;;;;4987531;28;20252;-74
2023/01/17 06:47:01;;;;;;;0.70;0.70;;;5.00;99.90;;;;;;4987816;28;20296;-72
2023/01/17 06:49:28;;;;;;;0.50;0.50;;;5.00;99.90;;;;;;4987324;28;20203;-72
2023/01/17 06:51:55;;;;;;;0.60;0.60;;;5.00;99.90;;;;;;4987803;28;20206;-72
2023/01/17 06:54:22;;;;;;;0.77;0.77;;;5.00;99.90;;;;;;4987661;28;20301;-72
2023/01/17 06:56:49;;;;;;;1.13;1.13;;;5.00;99.90;;;;;;4987249;28;20253;-72
2023/01/17 06:59:16;;;;;;;0.97;0.97;;;5.00;99.90;;;;;;4987782;28;20216;-73
2023/01/17 07:01:44;;;;;;;1.00;1.00;;;5.00;99.90;;;;;;4987691;28;20301;-72
2023/01/17 07:04:11;;;;;;;0.77;0.77;;;5.00;99.90;;;;;;4990935;28;20728;-72
2023/01/17 07:06:38;;;;;;;1.30;0.80;;;5.00;99.90;;;;;;4991184;28;20304;-72
2023/01/17 07:09:05;;;;;;;0.80;0.80;;;5.00;99.90;;;;;;4991337;28;20293;-72
2023/01/17 07:11:32;;;;;;;0.90;0.90;;;5.00;99.90;;;;;;4991082;28;20238;-72
2023/01/17 07:13:59;;;;;;;0.80;0.80;;;5.00;99.90;;;;;;4991473;28;20216;-73
2023/01/17 07:16:26;;;;;;;0.67;0.67;;;5.00;99.90;;;;;;4987904;28;20729;-72
2023/01/17 07:18:56;;;;;;;0.70;0.70;;;5.00;99.90;;;;;;4971273;28;20294;-72
2023/01/17 07:21:23;;;;;;;0.70;0.70;;;5.00;99.90;;;;;;4971709;28;20266;-72
2023/01/17 07:23:50;;;;;;;0.67;0.67;;;5.00;99.90;;;;;;5002386;28;20292;-72
2023/01/17 07:26:19;;;;;;;0.80;0.80;;;5.00;99.90;;;;;;4990557;28;20673;-72
2023/01/17 07:28:46;;;;;;;0.60;0.60;;;5.10;99.90;;;;;;4990684;28;20260;-72
2023/01/17 07:31:13;;;;;;;0.67;0.67;;;5.00;99.90;;;;;;4990515;28;20309;-72
2023/01/17 07:33:40;;;;;;;0.70;0.70;;;5.00;99.90;;;;;;4990763;28;20304;-72
2023/01/17 07:36:09;;;;;;;0.90;0.90;;;5.00;99.90;;;;;;4990771;28;20566;-72
2023/01/17 07:38:36;;;;;;;0.60;0.60;;;5.00;99.90;;;;;;4990514;28;20273;-72
2023/01/17 07:41:03;;;;;;;1.20;1.20;;;5.00;99.90;;;;;;4990856;28;20238;-72
2023/01/17 07:43:30;;;;;;;0.70;0.70;;;5.00;99.90;;;;;;4990734;28;20213;-73
2023/01/17 07:45:57;;;;;;;0.90;0.90;;;5.00;99.90;;;;;;4990689;28;20304;-73
2023/01/17 07:48:25;;;;;;;0.87;0.87;;;5.00;99.90;;;;;;4990234;28;20261;-73
2023/01/17 07:50:54;;;;;;;0.77;0.77;;;5.00;99.90;;;;;;4990731;28;20242;-73
2023/01/17 07:53:24;;;;;;;0.63;0.63;;;5.00;99.90;;;;;;4990507;28;20243;-72
2023/01/17 07:55:51;;;;;;;0.83;0.83;;;5.00;99.90;;;;;;4990213;28;20756;-72
2023/01/17 07:58:18;;;;;;;0.80;0.80;;;5.00;99.90;;;;;;4990407;28;20328;-72
2023/01/17 08:00:45;;;;;;;0.97;0.97;;;5.00;99.90;;;;;;4990291;28;20202;-73
2023/01/17 08:03:14;;;;;;;0.87;0.87;;;5.10;99.90;;;;;;4989789;28;20756;-73
2023/01/17 08:05:41;;;;;;;0.90;0.90;;;5.00;99.90;;;;;;4990334;28;20290;-72
2023/01/17 08:08:08;;;;;;;0.80;0.80;;;5.00;99.90;;;;;;4990230;28;20286;-72
2023/01/17 08:10:36;;;;;;;0.90;0.90;;;5.00;99.90;;;;;;4990331;28;20301;-73
2023/01/17 08:13:04;;;;;;;0.80;0.80;;;5.00;99.90;;;;;;4990052;28;20293;-72
2023/01/17 08:15:31;;;;;;;0.97;0.97;;;4.90;99.90;;;;;;4989406;28;20206;-72
2023/01/17 08:18:00;;;;;;;0.70;0.70;;;4.90;99.90;;;;;;4989883;28;20720;-72
2023/01/17 08:20:27;;;;;;;1.07;0.80;;;4.90;99.90;;;;;;4990078;28;20297;-72
2023/01/17 08:22:55;;;;;;;0.93;0.93;;;5.00;99.90;;;;;;4990061;28;20262;-73
2023/01/17 08:25:23;;;;;;;0.80;0.80;;;5.00;99.90;;;;;;4989808;28;20651;-72
2023/01/17 08:27:56;;;;;;;0.70;0.70;;;5.00;99.90;;;;;;4990075;28;20642;-72
2023/01/17 08:30:23;;;;;;;0.63;0.63;;;5.00;99.90;;;;;;4990438;28;20610;-72
2023/01/17 08:32:50;;;;;;;0.60;0.60;;;5.00;99.90;;;;;;4989757;28;20568;-72
2023/01/17 08:35:18;;;;;;;0.70;0.70;;;4.90;99.90;;;;;;4989742;28;20305;-72
2023/01/17 08:37:45;;;;;;;1.00;0.90;;;4.90;99.90;;;;;;4989827;28;20237;-73
2023/01/17 08:40:15;;;;;;;0.70;0.70;;;5.00;99.90;;;;;;4990011;28;20324;-73
2023/01/17 08:42:43;;;;;;;1.00;1.00;;;5.00;99.90;;;;;;4989663;28;20292;-72
2023/01/17 08:45:13;;;;;;;0.60;0.60;;;5.00;99.90;;;;;;4989784;28;20194;-73
2023/01/17 08:47:40;;;;;;;0.67;0.67;;;5.00;99.90;;;;;;4989482;28;20854;-72
2023/01/17 08:50:08;;;;;;;0.47;0.47;;;5.00;99.90;;;;;;4989420;28;20229;-72
2023/01/17 08:52:35;;;;;;;0.60;0.60;;;5.00;99.90;;;;;;4989707;28;20260;-73
2023/01/17 08:55:02;;;;;;;0.57;0.57;;;5.00;99.90;;;;;;4989297;28;20214;-72
2023/01/17 08:57:29;;;;;;;0.60;0.60;;;5.10;99.90;;;;;;4988921;28;20318;-72
2023/01/17 08:59:55;;;;;;;0.93;0.70;;;5.00;99.90;;;;;;4989457;28;20300;-72
2023/01/17 09:02:24;;;;;;;0.60;0.60;;;5.10;99.90;;;;;;4989371;28;20360;-72
2023/01/17 09:04:52;;;;;;;0.60;0.60;;;5.20;99.90;;;;;;4989394;28;20336;-72
2023/01/17 09:07:20;;;;;;;0.33;0.33;;;5.20;99.90;;;;;;4989091;28;20297;-72
2023/01/17 09:09:47;;;;;;;0.30;0.30;;;5.30;99.90;;;;;;4989171;28;20210;-72
2023/01/17 09:12:14;;;;;;;1.03;0.60;;;5.30;99.90;;;;;;4989031;28;20245;-72
2023/01/17 09:14:41;;;;;;;0.47;0.47;;;5.40;99.90;;;;;;4989111;28;20581;-72
2023/01/17 09:17:08;;;;;;;0.33;0.33;;;5.40;99.90;;;;;;4988609;28;20250;-71
2023/01/17 09:19:38;;;;;;;0.37;0.37;;;5.40;99.90;;;;;;4988643;28;20300;-72
2023/01/17 09:22:05;;;;;;;0.23;0.23;;;5.40;99.90;;;;;;4988698;28;20225;-72
2023/01/17 09:24:32;;;;;;;0.40;0.40;;;5.40;99.90;;;;;;4988770;28;20206;-72
2023/01/17 09:26:59;;;;;;;0.20;0.20;;;5.30;99.90;;;;;;4988640;28;20272;-72
2023/01/17 09:29:26;;;;;;;0.30;0.30;;;5.30;99.90;;;;;;4988934;28;20300;-72
2023/01/17 09:31:53;;;;;;;0.20;0.20;;;5.20;99.90;;;;;;4988776;28;20309;-71
2023/01/17 09:34:20;;;;;;;0.20;0.20;;;5.10;99.90;;;;;;4988566;28;20317;-75
2023/01/17 09:36:48;;;;;;;0.30;0.30;;;5.10;99.90;;;;;;4988842;28;20638;-71
2023/01/17 09:39:15;;;;;;;0.30;0.30;;;5.10;99.90;;;;;;4988618;28;20244;-72
2023/01/17 09:41:48;;;;;;;0.20;0.20;;;5.10;99.90;;;;;;4988525;28;20198;-73
2023/01/17 09:44:24;;;;;;;0.30;0.30;;;5.00;99.90;;;;;;4988489;28;20226;-72
2023/01/17 09:46:54;;;;;;;1.33;0.37;;;5.00;99.90;;;;;;4988609;28;20205;-71
2023/01/17 09:49:36;;;;;;;0.30;0.30;;;5.10;99.90;;;;;;4987793;28;20249;-72
2023/01/17 09:52:06;;;;;;;0.30;0.30;;;5.00;99.90;;;;;;4969065;28;20283;-72
2023/01/17 09:54:35;;;;;;;0.20;0.10;;;5.00;99.90;;;;;;4987672;28;20229;-72
2023/01/17 09:57:13;;;;;;;1.47;1.17;;;5.00;99.90;;;;;;4988225;28;20218;-72
2023/01/17 09:59:51;;;;;;;0.10;0.10;;;4.90;99.90;;;;;;4988721;28;20285;-73
2023/01/17 10:02:34;;;;;;;1.37;0.50;;;4.90;99.90;;;;;;4988115;28;20289;-72
2023/01/17 10:05:25;;;;;;;1.07;0.83;;;5.00;99.90;;;;;;4988237;28;20277;-72
2023/01/17 10:08:08;;;;;;;1.10;0.73;;;4.90;99.90;;;;;;4988463;28;20257;-73
2023/01/17 10:10:41;;;;;;;0.30;0.30;;;4.90;99.90;;;;;;4988186;28;20194;-72
2023/01/17 10:13:19;;;;;;;0.30;0.30;;;4.90;99.90;;;;;;4988353;28;20206;-72
2023/01/17 10:15:59;;;;;;;0.83;0.30;;;4.90;99.90;;;;;;4987932;28;20241;-71
2023/01/17 10:18:46;;;;;;;0.20;0.20;;;4.80;99.90;;;;;;4988150;28;20244;-72
2023/01/17 10:21:20;;;;;;;1.50;0.30;;;4.80;99.90;;;;;;4987971;28;20910;-73
2023/01/17 10:24:22;;;;;;;0.30;0.30;;;4.70;99.90;;;;;;4988421;28;20212;-73
2023/01/17 10:26:52;;;;;;;0.30;0.30;;;4.70;99.90;;;;;;4988042;28;20607;-73
2023/01/17 10:29:20;;;;;;;0.30;0.30;;;4.70;99.90;;;;;;4988122;28;20216;-72
2023/01/17 10:31:54;;;;;;;0.50;0.30;;;4.70;99.90;;;;;;4988248;28;20221;-72
2023/01/17 10:34:27;;;;;;;0.33;0.33;;;4.70;99.90;;;;;;4987477;28;20641;-72
2023/01/17 10:37:00;;;;;;;0.37;0.30;;;4.70;99.90;;;;;;4988204;28;20285;-73
2023/01/17 10:39:30;;;;;;;1.60;0.50;;;4.70;99.90;;;;;;4992197;28;20221;-73
2023/01/17 10:42:01;;;;;;;0.20;0.20;;;4.60;99.90;;;;;;4991629;28;20672;-73
2023/01/17 10:44:35;;;;;;;0.33;0.30;;;4.60;99.90;;;;;;4992060;28;20200;-73
2023/01/17 10:47:10;;;;;;;0.20;0.20;;;4.60;99.90;;;;;;4991725;28;20296;-73
2023/01/17 10:49:39;;;;;;;0.40;0.40;;;4.60;99.90;;;;;;4991790;28;20231;-73
2023/01/17 10:52:19;;;;;;;0.37;0.30;;;4.50;99.90;;;;;;4991815;28;20213;-73
2023/01/17 10:55:08;;;;;;;0.33;0.33;;;4.50;99.90;;;;;;4991774;28;20285;-73
2023/01/17 10:57:39;;;;;;;0.87;0.87;;;4.50;99.90;;;;;;4972022;28;20286;-73
2023/01/17 11:00:33;;;;;;;0.90;0.70;;;4.50;99.90;;;;;;4972246;28;20202;-73
2023/01/17 11:03:01;;;;;;;0.80;0.50;;;4.50;99.90;;;;;;4986673;28;20210;-72
2023/01/17 11:05:29;;;;;;;0.40;0.40;;;4.50;99.90;;;;;;4991169;28;20212;-72
2023/01/17 11:07:57;;;;;;;0.20;0.20;;;4.50;99.90;;;;;;4991166;28;20301;-72
2023/01/17 11:10:39;;;;;;;0.40;0.40;;;4.40;99.90;;;;;;4972082;28;20318;-72
2023/01/17 11:13:20;;;;;;;0.30;0.30;;;4.30;99.90;;;;;;4971586;28;20195;-72
2023/01/17 11:15:49;;;;;;;0.90;0.40;;;4.20;99.90;;;;;;4974445;28;20605;-72
2023/01/17 11:18:18;;;;;;;0.30;0.27;;;4.10;99.90;;;;;;4990822;28;20308;-72
2023/01/17 11:20:46;;;;;;;0.40;0.40;;;4.00;99.90;;;;;;4991327;28;20214;-72
2023/01/17 11:23:16;;;;;;;0.30;0.30;;;4.00;99.90;;;;;;4991084;28;20236;-72
2023/01/17 11:25:53;;;;;;;0.40;0.30;;;4.00;99.90;;;;;;4990777;28;20582;-72
2023/01/17 11:28:29;;;;;;;0.30;0.30;;;3.70;99.90;;;;;;4991060;28;20194;-71
2023/01/17 11:30:57;;;;;;;0.97;0.50;;;3.50;99.90;;;;;;4990935;28;20672;-72
2023/01/17 11:33:44;;;;;;;0.50;0.47;;;3.50;99.90;;;;;;4990576;28;20257;-72
2023/01/17 11:36:22;;;;;;;0.70;0.57;;;3.50;99.90;;;;;;4990861;28;20213;-72
2023/01/17 11:38:58;;;;;;;0.90;0.50;;;3.50;99.90;;;;;;4990903;28;20301;-72
2023/01/17 11:41:28;;;;;;;0.30;0.30;;;3.60;99.90;;;;;;4990450;28;20652;-72
2023/01/17 11:43:56;;;;;;;0.50;0.50;;;3.70;99.90;;;;;;4991046;28;20210;-72
2023/01/17 11:46:23;;;;;;;0.37;0.37;;;3.90;99.90;;;;;;4984437;28;20628;-72
2023/01/17 11:48:52;;;;;;;0.60;0.60;;;3.80;99.90;;;;;;4990640;28;20217;-72
2023/01/17 11:51:25;;;;;;;0.90;0.47;;;3.80;99.90;;;;;;4971494;28;20235;-72
2023/01/17 11:53:53;;;;;;;0.97;0.50;;;3.80;99.90;;;;;;4970924;28;20203;-72
2023/01/17 11:56:29;;;;;;;0.57;0.57;;;3.80;99.90;;;;;;4980302;28;20293;-72
2023/01/17 11:59:23;;;;;;;0.90;0.57;;;3.90;99.90;;;;;;4990735;28;20460;-72
2023/01/17 12:02:04;;;;;;;0.40;0.40;;;3.90;99.90;;;;;;4990512;28;20234;-72
2023/01/17 12:04:38;;;;;;;1.37;0.70;;;3.90;99.90;;;;;;4989871;28;20755;-72
2023/01/17 12:07:21;;;;;;;1.27;0.40;;;3.90;99.90;;;;;;4990395;28;20289;-72
2023/01/17 12:09:58;;;;;;;0.60;0.60;;;3.90;99.90;;;;;;4990513;28;20289;-72
2023/01/17 12:15:36;;;;;;;0.83;0.63;;;4.20;99.90;;;;;;4990306;28;20197;-71
2023/01/17 12:18:32;;;;;;;0.60;0.50;;;4.20;99.90;;;;;;4970436;28;20201;-71
2023/01/17 12:21:12;;;;;;;0.60;0.60;;;4.30;99.90;;;;;;4971434;28;20552;-72
2023/01/17 12:23:57;;;;;;;0.60;0.50;;;4.30;99.90;;;;;;5007836;28;20236;-71
2023/01/17 12:26:36;;;;;;;2.10;0.50;;;4.30;99.90;;;;;;5009783;28;20994;-72
2023/01/17 12:29:34;;;;;;;0.50;0.50;;;4.40;99.90;;;;;;5009990;28;20316;-72
2023/01/17 12:32:35;;;;;;;1.03;0.60;;;4.40;99.90;;;;;;5009773;28;20292;-72
2023/01/17 12:35:12;;;;;;;1.60;0.97;;;4.40;99.90;;;;;;5009880;28;20229;-72
2023/01/17 12:37:43;;;;;;;1.10;1.00;;;4.40;99.90;;;;;;5009847;28;20197;-72
2023/01/17 12:40:21;;;;;;;0.97;0.80;;;4.50;99.90;;;;;;5009752;28;20308;-72
2023/01/17 12:42:52;;;;;;;1.70;0.90;;;4.50;99.90;;;;;;4993861;28;20941;-72
2023/01/17 12:45:25;;;;;;;1.37;0.57;;;4.50;99.90;;;;;;4989509;28;20194;-72
2023/01/17 12:47:58;;;;;;;0.80;0.67;;;4.60;99.90;;;;;;4969897;28;20672;-71
2023/01/17 12:50:31;;;;;;;1.70;0.60;;;4.50;99.90;;;;;;4970079;28;20203;-72
2023/01/17 12:53:02;;;;;;;3.80;0.40;;;4.50;99.90;;;;;;4970155;28;20195;-72
2023/01/17 12:55:37;;;;;;;1.60;0.60;;;4.50;99.90;;;;;;4982181;28;20643;-72
2023/01/17 12:58:10;;;;;;;1.43;0.60;;;4.60;99.90;;;;;;4970218;28;20716;-72
2023/01/17 13:00:39;;;;;;;1.63;0.80;;;4.60;99.90;;;;;;4971283;28;20203;-71
2023/01/17 13:03:16;;;;;;;1.47;0.67;;;4.60;99.90;;;;;;4989061;28;20749;-72
2023/01/17 13:05:47;;;;;;;1.53;0.50;;;4.70;99.90;;;;;;4989141;28;20237;-72
2023/01/17 13:08:23;;;;;;;0.80;0.47;;;4.70;99.90;;;;;;4989326;28;20194;-74
2023/01/17 13:10:54;;;;;;;0.90;0.50;;;4.70;99.90;;;;;;4989148;28;20558;-72
2023/01/17 13:13:24;;;;;;;2.23;0.70;;;4.80;99.90;;;;;;4989355;28;20197;-72
2023/01/17 13:15:54;;;;;;;1.13;0.60;;;4.80;99.90;;;;;;4985701;28;20655;-71
2023/01/17 13:18:25;;;;;;;0.80;0.60;;;4.80;99.90;;;;;;4969535;28;20287;-73
2023/01/17 13:21:18;;;;;;;2.10;0.90;;;5.00;99.90;;;;;;4969852;28;20210;-72
2023/01/17 13:24:04;;;;;;;1.53;0.53;;;4.90;99.90;;;;;;4988527;28;20292;-72
2023/01/17 13:26:43;;;;;;;1.40;1.10;;;5.00;99.90;;;;;;4988598;28;20245;-72
2023/01/17 13:29:20;;;;;;;0.53;0.53;;;5.10;99.90;;;;;;4988943;28;20210;-73
2023/01/17 13:31:52;;;;;;;2.07;0.53;;;5.10;99.90;;;;;;4988919;28;20292;-72
2023/01/17 13:34:42;;;;;;;4.40;1.03;;;5.00;99.90;;;;;;4988661;28;20199;-74
2023/01/17 13:37:36;;;;;;;1.50;0.83;;;5.00;99.90;;;;;;4988739;28;20205;-72
2023/01/17 13:40:24;;;;;;;4.43;2.20;;;5.00;99.90;;;;;;4980062;28;20322;-73
2023/01/17 13:42:55;;;;;;;2.70;2.50;;;5.00;99.90;;;;;;4988307;28;20297;-72
2023/01/17 13:45:25;;;;;;;5.03;1.50;;;4.90;99.90;;;;;;4988723;28;20198;-73
2023/01/17 13:47:53;;;;;;;2.30;0.80;;;4.90;99.90;;;;;;4969327;28;20293;-72
2023/01/17 13:50:51;;;;;;;1.37;0.90;;;5.00;99.90;;;;;;4973103;28;20224;-72
2023/01/17 13:53:55;;;;;;;1.47;0.80;;;5.10;99.90;;;;;;4981120;28;20210;-72
2023/01/17 13:56:37;;;;;;;2.10;0.67;;;5.10;99.90;;;;;;4987831;28;20201;-73
2023/01/17 13:59:33;;;;;;;1.37;0.80;;;5.30;99.90;;;;;;4984735;28;20234;-73
2023/01/17 14:01:59;;;;;;;3.87;1.90;;;5.50;99.90;;;;;;4988504;28;20297;-72
2023/01/17 14:04:59;;;;;;;1.87;0.90;;;5.60;99.90;;;;;;4988201;28;20208;-73
2023/01/17 14:07:32;;;;;;;1.63;0.83;;;5.60;99.90;;;;;;4987849;28;20300;-72
2023/01/17 14:09:59;;;;;;;0.97;0.50;;;5.50;99.90;;;;;;4988460;28;20285;-72
2023/01/17 14:12:31;;;;;;;0.93;0.70;;;5.40;99.90;;;;;;4986700;28;20680;-73
2023/01/17 14:15:01;;;;;;;3.50;0.90;;;5.30;99.90;;;;;;4987878;28;20199;-73
2023/01/17 14:17:54;;;;;;;1.57;0.97;;;5.30;99.90;;;;;;4986421;28;20320;-73
2023/01/17 14:20:48;;;;;;;2.40;1.23;;;5.30;99.90;;;;;;4968801;28;20229;-74
2023/01/17 14:23:52;;;;;;;2.10;1.10;;;5.40;99.90;;;;;;4982493;28;20861;-73
2023/01/17 14:26:45;;;;;;;3.67;1.50;;;5.50;99.90;;;;;;4950506;28;20307;-73
2023/01/17 14:29:51;;;;;;;2.80;1.70;;;5.40;99.90;;;;;;4986051;28;20229;-73
2023/01/17 14:32:22;;;;;;;2.70;2.17;;;5.30;99.90;;;;;;4980567;28;20316;-74
2023/01/17 14:34:50;;;;;;;3.47;2.20;;;5.10;99.90;;;;;;4985825;28;20294;-73
2023/01/17 14:37:26;;;;;;;4.67;2.70;;;5.20;99.90;;;;;;4985662;28;20297;-73
2023/01/17 14:39:54;;;;;;;2.30;0.83;;;5.20;99.90;;;;;;4986192;28;20425;-73
2023/01/17 14:42:23;;;;;;;4.30;2.47;;;5.20;99.90;;;;;;4985522;28;20299;-73
2023/01/17 14:44:53;;;;;;;3.37;1.70;;;5.20;99.90;;;;;;4985920;28;20293;-74
2023/01/17 14:47:21;;;;;;;3.07;1.07;;;5.20;99.90;;;;;;4985630;28;20216;-73